sensor_id;sensor_type;location;lat;lon;timestamp;pressure;altitude;pressure_sealevel;temperature;humidity
51759;BME280;66684;47.568;18.734;2024-02-21T00:01:04;100280.75;;;5.79;100.00
51759;BME280;66684;47.568;18.734;2024-02-21T00:03:31;100275.19;;;5.73;100.00
51759;BME280;66684;47.568;18.734;2024-02-21T00:05:57;100276.94;;;5.86;100.00
51759;BME280;66684;47.568;18.734;2024-02-21T00:08:22;100277.03;;;5.99;100.00
51759;BME280;66684;47.568;18.734;2024-02-21T00:10:48;100275.03;;;5.83;100.00
51759;BME280;66684;47.568;18.734;2024-02-21T00:13:15;100275.44;;;5.89;100.00
51759;BME280;66684;47.568;18.734;2024-02-21T00:15:41;100273.06;;;5.79;100.00
51759;BME280;66684;47.568;18.734;2024-02-21T00:18:06;100265.72;;;5.72;100.00
51759;BME280;66684;47.568;18.734;2024-02-21T00:20:32;100266.53;;;5.84;100.00
51759;BME280;66684;47.568;18.734;2024-02-21T00:22:58;100271.25;;;5.78;100.00
51759;BME280;66684;47.568;18.734;2024-02-21T00:25:24;100260.97;;;5.78;100.00
51759;BME280;66684;47.568;18.734;2024-02-21T00:27:50;100261.41;;;5.84;100.00
51759;BME280;66684;47.568;18.734;2024-02-21T00:30:16;100263.22;;;5.85;100.00
51759;BME280;66684;47.568;18.734;2024-02-21T00:32:42;100256.03;;;5.68;100.00
51759;BME280;66684;47.568;18.734;2024-02-21T00:35:08;100254.22;;;5.79;100.00
51759;BME280;66684;47.568;18.734;2024-02-21T00:37:33;100247.66;;;5.59;100.00
51759;BME280;66684;47.568;18.734;2024-02-21T00:39:59;100251.00;;;5.58;100.00
51759;BME280;66684;47.568;18.734;2024-02-21T00:42:25;100246.22;;;5.62;100.00
51759;BME280;66684;47.568;18.734;2024-02-21T00:44:51;100252.78;;;5.59;100.00
51759;BME280;66684;47.568;18.734;2024-02-21T00:47:17;100249.66;;;5.63;100.00
51759;BME280;66684;47.568;18.734;2024-02-21T00:49:43;100248.94;;;5.77;100.00
51759;BME280;66684;47.568;18.734;2024-02-21T00:52:09;100248.06;;;5.77;100.00
51759;BME280;66684;47.568;18.734;2024-02-21T00:54:34;100245.22;;;5.60;100.00
51759;BME280;66684;47.568;18.734;2024-02-21T00:57:00;100242.28;;;5.79;100.00
51759;BME280;66684;47.568;18.734;2024-02-21T00:59:26;100238.69;;;5.77;100.00
51759;BME280;66684;47.568;18.734;2024-02-21T01:01:52;100230.75;;;5.49;100.00
51759;BME280;66684;47.568;18.734;2024-02-21T01:04:18;100226.78;;;5.41;100.00
51759;BME280;66684;47.568;18.734;2024-02-21T01:06:44;100230.06;;;5.52;100.00
51759;BME280;66684;47.568;18.734;2024-02-21T01:09:10;100242.16;;;5.41;100.00
51759;BME280;66684;47.568;18.734;2024-02-21T01:11:36;100236.09;;;5.40;100.00
51759;BME280;66684;47.568;18.734;2024-02-21T01:14:02;100235.22;;;5.40;100.00
51759;BME280;66684;47.568;18.734;2024-02-21T01:16:28;100231.22;;;5.44;100.00
51759;BME280;66684;47.568;18.734;2024-02-21T01:18:54;100236.78;;;5.50;100.00
51759;BME280;66684;47.568;18.734;2024-02-21T01:21:20;100224.59;;;5.59;100.00
51759;BME280;66684;47.568;18.734;2024-02-21T01:23:46;100230.84;;;5.62;100.00
51759;BME280;66684;47.568;18.734;2024-02-21T01:26:11;100224.25;;;5.66;100.00
51759;BME280;66684;47.568;18.734;2024-02-21T01:28:40;100239.66;;;5.66;100.00
51759;BME280;66684;47.568;18.734;2024-02-21T01:31:06;100227.25;;;5.72;100.00
51759;BME280;66684;47.568;18.734;2024-02-21T01:33:32;100226.47;;;5.73;100.00
51759;BME280;66684;47.568;18.734;2024-02-21T01:36:01;100233.56;;;5.77;100.00
51759;BME280;66684;47.568;18.734;2024-02-21T01:38:28;100222.69;;;5.68;100.00
51759;BME280;66684;47.568;18.734;2024-02-21T01:40:54;100231.72;;;5.63;100.00
51759;BME280;66684;47.568;18.734;2024-02-21T01:43:20;100220.91;;;5.67;100.00
51759;BME280;66684;47.568;18.734;2024-02-21T01:45:49;100223.56;;;5.68;100.00
51759;BME280;66684;47.568;18.734;2024-02-21T01:48:18;100218.12;;;5.64;100.00
51759;BME280;66684;47.568;18.734;2024-02-21T01:50:45;100216.78;;;5.69;100.00
51759;BME280;66684;47.568;18.734;2024-02-21T01:53:13;100206.16;;;5.76;100.00
51759;BME280;66684;47.568;18.734;2024-02-21T01:55:47;100207.50;;;5.71;100.00
51759;BME280;66684;47.568;18.734;2024-02-21T01:58:17;100196.06;;;5.66;100.00
51759;BME280;66684;47.568;18.734;2024-02-21T02:00:45;100191.69;;;5.65;100.00
51759;BME280;66684;47.568;18.734;2024-02-21T02:03:13;100191.50;;;5.62;100.00
51759;BME280;66684;47.568;18.734;2024-02-21T02:05:45;100184.78;;;5.64;100.00
51759;BME280;66684;47.568;18.734;2024-02-21T02:08:20;100180.31;;;5.73;100.00
51759;BME280;66684;47.568;18.734;2024-02-21T02:10:50;100189.78;;;5.74;100.00
51759;BME280;66684;47.568;18.734;2024-02-21T02:13:16;100180.75;;;5.79;100.00
51759;BME280;66684;47.568;18.734;2024-02-21T02:15:46;100182.50;;;5.80;100.00
51759;BME280;66684;47.568;18.734;2024-02-21T02:18:13;100190.19;;;5.80;100.00
51759;BME280;66684;47.568;18.734;2024-02-21T02:20:40;100184.47;;;5.84;100.00
51759;BME280;66684;47.568;18.734;2024-02-21T02:25:45;100176.50;;;5.80;100.00
51759;BME280;66684;47.568;18.734;2024-02-21T02:28:14;100178.19;;;5.79;100.00
51759;BME280;66684;47.568;18.734;2024-02-21T02:30:40;100187.00;;;5.71;100.00
51759;BME280;66684;47.568;18.734;2024-02-21T02:33:06;100187.00;;;5.71;100.00
51759;BME280;66684;47.568;18.734;2024-02-21T02:35:32;100181.44;;;5.65;100.00
51759;BME280;66684;47.568;18.734;2024-02-21T02:38:01;100184.38;;;5.58;100.00
51759;BME280;66684;47.568;18.734;2024-02-21T02:40:26;100182.97;;;5.50;100.00
51759;BME280;66684;47.568;18.734;2024-02-21T02:42:52;100183.31;;;5.43;100.00
51759;BME280;66684;47.568;18.734;2024-02-21T02:45:22;100185.66;;;5.39;100.00
51759;BME280;66684;47.568;18.734;2024-02-21T02:47:53;100179.28;;;5.46;100.00
51759;BME280;66684;47.568;18.734;2024-02-21T02:50:26;100184.66;;;5.37;100.00
51759;BME280;66684;47.568;18.734;2024-02-21T02:52:53;100179.34;;;5.34;100.00
51759;BME280;66684;47.568;18.734;2024-02-21T02:55:19;100184.91;;;5.29;100.00
51759;BME280;66684;47.568;18.734;2024-02-21T02:57:45;100193.25;;;5.26;100.00
51759;BME280;66684;47.568;18.734;2024-02-21T03:00:12;100180.25;;;5.23;100.00
51759;BME280;66684;47.568;18.734;2024-02-21T03:02:39;100189.81;;;5.26;100.00
51759;BME280;66684;47.568;18.734;2024-02-21T03:05:14;100196.06;;;5.18;100.00
51759;BME280;66684;47.568;18.734;2024-02-21T03:07:43;100192.53;;;5.04;100.00
51759;BME280;66684;47.568;18.734;2024-02-21T03:10:10;100191.75;;;5.05;100.00
51759;BME280;66684;47.568;18.734;2024-02-21T03:12:36;100202.34;;;4.98;100.00
51759;BME280;66684;47.568;18.734;2024-02-21T03:15:03;100200.22;;;4.92;100.00
51759;BME280;66684;47.568;18.734;2024-02-21T03:17:29;100199.87;;;4.99;100.00
51759;BME280;66684;47.568;18.734;2024-02-21T03:19:55;100193.63;;;4.96;100.00
51759;BME280;66684;47.568;18.734;2024-02-21T03:22:26;100209.78;;;4.95;100.00
51759;BME280;66684;47.568;18.734;2024-02-21T03:24:53;100201.88;;;4.92;100.00
51759;BME280;66684;47.568;18.734;2024-02-21T03:27:18;100202.78;;;4.80;100.00
51759;BME280;66684;47.568;18.734;2024-02-21T03:29:44;100197.66;;;4.80;100.00
51759;BME280;66684;47.568;18.734;2024-02-21T03:32:10;100206.31;;;4.82;100.00
51759;BME280;66684;47.568;18.734;2024-02-21T03:34:36;100208.69;;;4.79;100.00
51759;BME280;66684;47.568;18.734;2024-02-21T03:37:02;100211.78;;;4.75;100.00
51759;BME280;66684;47.568;18.734;2024-02-21T03:39:31;100212.56;;;4.86;100.00
51759;BME280;66684;47.568;18.734;2024-02-21T03:41:57;100215.03;;;4.84;100.00
51759;BME280;66684;47.568;18.734;2024-02-21T03:44:23;100209.22;;;4.75;100.00
51759;BME280;66684;47.568;18.734;2024-02-21T03:46:49;100223.00;;;4.77;100.00
51759;BME280;66684;47.568;18.734;2024-02-21T03:49:15;100214.34;;;4.64;100.00
51759;BME280;66684;47.568;18.734;2024-02-21T03:51:41;100213.91;;;4.69;100.00
51759;BME280;66684;47.568;18.734;2024-02-21T03:54:07;100220.78;;;4.70;100.00
51759;BME280;66684;47.568;18.734;2024-02-21T03:56:37;100225.69;;;4.67;100.00
51759;BME280;66684;47.568;18.734;2024-02-21T03:59:03;100218.38;;;4.72;100.00
51759;BME280;66684;47.568;18.734;2024-02-21T04:01:29;100218.09;;;4.57;100.00
51759;BME280;66684;47.568;18.734;2024-02-21T04:03:55;100222.34;;;4.68;100.00
51759;BME280;66684;47.568;18.734;2024-02-21T04:06:20;100223.69;;;4.63;100.00
51759;BME280;66684;47.568;18.734;2024-02-21T04:08:46;100214.78;;;4.58;100.00
51759;BME280;66684;47.568;18.734;2024-02-21T04:11:12;100216.78;;;4.50;100.00
51759;BME280;66684;47.568;18.734;2024-02-21T04:13:38;100227.00;;;4.50;100.00
51759;BME280;66684;47.568;18.734;2024-02-21T04:16:04;100217.31;;;4.58;100.00
51759;BME280;66684;47.568;18.734;2024-02-21T04:18:31;100216.34;;;4.56;100.00
51759;BME280;66684;47.568;18.734;2024-02-21T04:20:58;100216.13;;;4.53;100.00
51759;BME280;66684;47.568;18.734;2024-02-21T04:23:24;100217.78;;;4.41;100.00
51759;BME280;66684;47.568;18.734;2024-02-21T04:25:50;100222.66;;;4.49;100.00
51759;BME280;66684;47.568;18.734;2024-02-21T04:28:15;100226.56;;;4.56;100.00
51759;BME280;66684;47.568;18.734;2024-02-21T04:30:41;100214.78;;;4.58;100.00
51759;BME280;66684;47.568;18.734;2024-02-21T04:33:07;100219.44;;;4.52;100.00
51759;BME280;66684;47.568;18.734;2024-02-21T04:35:33;100224.00;;;4.56;100.00
51759;BME280;66684;47.568;18.734;2024-02-21T04:37:59;100214.44;;;4.53;100.00
51759;BME280;66684;47.568;18.734;2024-02-21T04:40:25;100215.34;;;4.54;100.00
51759;BME280;66684;47.568;18.734;2024-02-21T04:42:50;100205.44;;;4.47;100.00
51759;BME280;66684;47.568;18.734;2024-02-21T04:45:16;100206.41;;;4.37;100.00
51759;BME280;66684;47.568;18.734;2024-02-21T04:47:43;100210.75;;;4.50;100.00
51759;BME280;66684;47.568;18.734;2024-02-21T04:50:09;100198.75;;;4.49;100.00
51759;BME280;66684;47.568;18.734;2024-02-21T04:52:34;100205.19;;;4.44;100.00
51759;BME280;66684;47.568;18.734;2024-02-21T04:55:00;100209.41;;;4.43;100.00
51759;BME280;66684;47.568;18.734;2024-02-21T04:57:26;100208.06;;;4.37;100.00
51759;BME280;66684;47.568;18.734;2024-02-21T04:59:52;100199.87;;;4.41;100.00
51759;BME280;66684;47.568;18.734;2024-02-21T05:02:18;100196.16;;;4.37;100.00
51759;BME280;66684;47.568;18.734;2024-02-21T05:04:45;100199.41;;;4.35;100.00
51759;BME280;66684;47.568;18.734;2024-02-21T05:07:11;100199.87;;;4.41;100.00
51759;BME280;66684;47.568;18.734;2024-02-21T05:09:37;100200.72;;;4.29;100.00
51759;BME280;66684;47.568;18.734;2024-02-21T05:12:03;100200.91;;;4.09;100.00
51759;BME280;66684;47.568;18.734;2024-02-21T05:14:29;100204.62;;;3.91;100.00
51759;BME280;66684;47.568;18.734;2024-02-21T05:16:55;100214.13;;;3.82;100.00
51759;BME280;66684;47.568;18.734;2024-02-21T05:19:21;100212.34;;;3.81;100.00
51759;BME280;66684;47.568;18.734;2024-02-21T05:21:47;100216.37;;;3.89;100.00
51759;BME280;66684;47.568;18.734;2024-02-21T05:24:13;100217.78;;;4.07;100.00
51759;BME280;66684;47.568;18.734;2024-02-21T05:26:39;100218.03;;;4.10;100.00
51759;BME280;66684;47.568;18.734;2024-02-21T05:29:04;100216.47;;;4.12;100.00
51759;BME280;66684;47.568;18.734;2024-02-21T05:32:04;100221.13;;;4.06;100.00
51759;BME280;66684;47.568;18.734;2024-02-21T05:34:29;100226.38;;;3.86;100.00
51759;BME280;66684;47.568;18.734;2024-02-21T05:36:55;100219.50;;;3.85;100.00
51759;BME280;66684;47.568;18.734;2024-02-21T05:39:20;100215.91;;;3.83;100.00
51759;BME280;66684;47.568;18.734;2024-02-21T05:41:49;100211.75;;;3.51;100.00
51759;BME280;66684;47.568;18.734;2024-02-21T05:44:15;100206.84;;;3.42;100.00
51759;BME280;66684;47.568;18.734;2024-02-21T05:46:41;100216.37;;;3.89;100.00
51759;BME280;66684;47.568;18.734;2024-02-21T05:49:07;100217.94;;;3.87;100.00
51759;BME280;66684;47.568;18.734;2024-02-21T05:51:33;100221.75;;;3.92;100.00
51759;BME280;66684;47.568;18.734;2024-02-21T05:54:00;100218.88;;;3.99;100.00
51759;BME280;66684;47.568;18.734;2024-02-21T05:56:26;100217.91;;;4.09;100.00
51759;BME280;66684;47.568;18.734;2024-02-21T05:58:51;100225.38;;;4.17;100.00
51759;BME280;66684;47.568;18.734;2024-02-21T06:01:18;100226.16;;;4.16;100.00
51759;BME280;66684;47.568;18.734;2024-02-21T06:03:44;100223.34;;;4.13;100.00
51759;BME280;66684;47.568;18.734;2024-02-21T06:06:10;100222.03;;;4.18;100.00
51759;BME280;66684;47.568;18.734;2024-02-21T06:08:35;100224.28;;;4.25;100.00
51759;BME280;66684;47.568;18.734;2024-02-21T06:11:01;100227.88;;;4.27;100.00
51759;BME280;66684;47.568;18.734;2024-02-21T06:13:27;100226.84;;;4.25;100.00
51759;BME280;66684;47.568;18.734;2024-02-21T06:15:53;100229.19;;;4.22;100.00
51759;BME280;66684;47.568;18.734;2024-02-21T06:18:20;100221.38;;;4.21;100.00
51759;BME280;66684;47.568;18.734;2024-02-21T06:20:46;100225.53;;;4.30;100.00
51759;BME280;66684;47.568;18.734;2024-02-21T06:23:14;100224.09;;;4.46;100.00
51759;BME280;66684;47.568;18.734;2024-02-21T06:25:41;100228.47;;;4.47;100.00
51759;BME280;66684;47.568;18.734;2024-02-21T06:28:06;100225.44;;;4.52;100.00
51759;BME280;66684;47.568;18.734;2024-02-21T06:30:32;100231.22;;;4.50;100.00
51759;BME280;66684;47.568;18.734;2024-02-21T06:32:58;100235.00;;;4.43;100.00
51759;BME280;66684;47.568;18.734;2024-02-21T06:35:25;100231.44;;;4.41;100.00
51759;BME280;66684;47.568;18.734;2024-02-21T06:37:51;100233.25;;;4.54;100.00
51759;BME280;66684;47.568;18.734;2024-02-21T06:40:20;100239.47;;;4.57;100.00
51759;BME280;66684;47.568;18.734;2024-02-21T06:42:46;100239.28;;;4.66;100.00
51759;BME280;66684;47.568;18.734;2024-02-21T06:45:12;100250.63;;;4.70;100.00
51759;BME280;66684;47.568;18.734;2024-02-21T06:47:38;100256.97;;;4.75;100.00
51759;BME280;66684;47.568;18.734;2024-02-21T06:50:04;100250.87;;;4.84;100.00
51759;BME280;66684;47.568;18.734;2024-02-21T06:52:30;100259.09;;;4.80;100.00
51759;BME280;66684;47.568;18.734;2024-02-21T06:54:56;100265.88;;;4.80;100.00
51759;BME280;66684;47.568;18.734;2024-02-21T06:57:23;100256.22;;;4.87;100.00
51759;BME280;66684;47.568;18.734;2024-02-21T06:59:48;100259.56;;;4.86;100.00
51759;BME280;66684;47.568;18.734;2024-02-21T07:02:14;100279.16;;;4.98;100.00
51759;BME280;66684;47.568;18.734;2024-02-21T07:04:40;100271.94;;;5.04;100.00
51759;BME280;66684;47.568;18.734;2024-02-21T07:07:06;100269.91;;;5.00;100.00
51759;BME280;66684;47.568;18.734;2024-02-21T07:09:32;100267.59;;;5.03;100.00
51759;BME280;66684;47.568;18.734;2024-02-21T07:11:58;100276.91;;;5.14;100.00
51759;BME280;66684;47.568;18.734;2024-02-21T07:14:24;100276.47;;;5.08;100.00
51759;BME280;66684;47.568;18.734;2024-02-21T07:16:51;100272.56;;;5.25;100.00
51759;BME280;66684;47.568;18.734;2024-02-21T07:19:17;100272.78;;;5.39;100.00
51759;BME280;66684;47.568;18.734;2024-02-21T07:21:43;100273.25;;;5.22;100.00
51759;BME280;66684;47.568;18.734;2024-02-21T07:24:09;100276.47;;;5.31;100.00
51759;BME280;66684;47.568;18.734;2024-02-21T07:26:35;100269.31;;;5.51;100.00
51759;BME280;66684;47.568;18.734;2024-02-21T07:29:00;100273.22;;;5.46;100.00
51759;BME280;66684;47.568;18.734;2024-02-21T07:31:26;100275.66;;;5.56;100.00
51759;BME280;66684;47.568;18.734;2024-02-21T07:33:52;100280.87;;;5.57;100.00
51759;BME280;66684;47.568;18.734;2024-02-21T07:36:29;100275.28;;;5.75;100.00
51759;BME280;66684;47.568;18.734;2024-02-21T07:38:56;100276.16;;;5.75;100.00
51759;BME280;66684;47.568;18.734;2024-02-21T07:41:21;100275.72;;;5.81;100.00
51759;BME280;66684;47.568;18.734;2024-02-21T07:43:47;100271.47;;;5.93;100.00
51759;BME280;66684;47.568;18.734;2024-02-21T07:46:14;100267.19;;;6.05;100.00
51759;BME280;66684;47.568;18.734;2024-02-21T07:48:40;100271.84;;;6.11;100.00
51759;BME280;66684;47.568;18.734;2024-02-21T07:51:06;100270.75;;;6.32;100.00
51759;BME280;66684;47.568;18.734;2024-02-21T07:53:32;100271.41;;;6.55;100.00
51759;BME280;66684;47.568;18.734;2024-02-21T07:55:57;100268.84;;;6.55;100.00
51759;BME280;66684;47.568;18.734;2024-02-21T07:58:23;100271.59;;;6.58;100.00
51759;BME280;66684;47.568;18.734;2024-02-21T08:00:49;100262.06;;;6.82;100.00
51759;BME280;66684;47.568;18.734;2024-02-21T08:03:15;100259.59;;;6.83;100.00
51759;BME280;66684;47.568;18.734;2024-02-21T08:05:43;100254.78;;;7.01;100.00
51759;BME280;66684;47.568;18.734;2024-02-21T08:08:09;100253.72;;;7.11;100.00
51759;BME280;66684;47.568;18.734;2024-02-21T08:10:35;100256.66;;;7.17;100.00
51759;BME280;66684;47.568;18.734;2024-02-21T08:13:01;100251.31;;;7.14;100.00
51759;BME280;66684;47.568;18.734;2024-02-21T08:15:27;100250.63;;;7.29;100.00
51759;BME280;66684;47.568;18.734;2024-02-21T08:17:58;100243.16;;;7.47;100.00
51759;BME280;66684;47.568;18.734;2024-02-21T08:20:27;100255.03;;;7.58;100.00
51759;BME280;66684;47.568;18.734;2024-02-21T08:22:53;100261.19;;;7.61;100.00
51759;BME280;66684;47.568;18.734;2024-02-21T08:25:19;100259.75;;;7.66;100.00
51759;BME280;66684;47.568;18.734;2024-02-21T08:27:45;100257.97;;;7.65;100.00
51759;BME280;66684;47.568;18.734;2024-02-21T08:30:11;100270.41;;;7.72;100.00
51759;BME280;66684;47.568;18.734;2024-02-21T08:32:37;100267.50;;;7.94;100.00
51759;BME280;66684;47.568;18.734;2024-02-21T08:35:03;100261.84;;;7.99;100.00
51759;BME280;66684;47.568;18.734;2024-02-21T08:37:30;100260.72;;;8.09;100.00
51759;BME280;66684;47.568;18.734;2024-02-21T08:39:56;100264.47;;;8.29;100.00
51759;BME280;66684;47.568;18.734;2024-02-21T08:42:22;100266.06;;;8.40;100.00
51759;BME280;66684;47.568;18.734;2024-02-21T08:44:48;100262.88;;;8.44;100.00
51759;BME280;66684;47.568;18.734;2024-02-21T08:47:14;100259.84;;;8.36;100.00
51759;BME280;66684;47.568;18.734;2024-02-21T08:49:40;100259.50;;;8.45;100.00
51759;BME280;66684;47.568;18.734;2024-02-21T08:52:06;100258.56;;;8.30;100.00
51759;BME280;66684;47.568;18.734;2024-02-21T08:54:32;100258.47;;;8.00;100.00
51759;BME280;66684;47.568;18.734;2024-02-21T08:56:58;100249.78;;;7.98;100.00
51759;BME280;66684;47.568;18.734;2024-02-21T08:59:24;100249.03;;;8.29;100.00
51759;BME280;66684;47.568;18.734;2024-02-21T09:01:51;100248.31;;;8.45;100.00
51759;BME280;66684;47.568;18.734;2024-02-21T09:04:20;100248.03;;;8.40;100.00
51759;BME280;66684;47.568;18.734;2024-02-21T09:06:46;100253.81;;;8.36;100.00
51759;BME280;66684;47.568;18.734;2024-02-21T09:09:12;100252.56;;;8.44;100.00
51759;BME280;66684;47.568;18.734;2024-02-21T09:11:38;100252.50;;;8.43;100.00
51759;BME280;66684;47.568;18.734;2024-02-21T09:14:04;100249.12;;;8.44;100.00
51759;BME280;66684;47.568;18.734;2024-02-21T09:16:31;100247.25;;;8.56;100.00
51759;BME280;66684;47.568;18.734;2024-02-21T09:18:58;100247.59;;;8.47;100.00
51759;BME280;66684;47.568;18.734;2024-02-21T09:21:24;100242.28;;;8.44;100.00
51759;BME280;66684;47.568;18.734;2024-02-21T09:23:50;100230.56;;;8.49;100.00
51759;BME280;66684;47.568;18.734;2024-02-21T09:26:15;100226.81;;;8.44;100.00
51759;BME280;66684;47.568;18.734;2024-02-21T09:28:43;100232.84;;;8.59;100.00
51759;BME280;66684;47.568;18.734;2024-02-21T09:31:10;100227.91;;;8.62;100.00
51759;BME280;66684;47.568;18.734;2024-02-21T09:33:35;100231.53;;;8.66;100.00
51759;BME280;66684;47.568;18.734;2024-02-21T09:36:02;100233.37;;;8.54;100.00
51759;BME280;66684;47.568;18.734;2024-02-21T09:38:31;100228.97;;;8.81;100.00
51759;BME280;66684;47.568;18.734;2024-02-21T09:43:33;100222.72;;;8.77;100.00
51759;BME280;66684;47.568;18.734;2024-02-21T09:46:00;100223.44;;;8.89;100.00
51759;BME280;66684;47.568;18.734;2024-02-21T09:50:54;100222.47;;;8.73;100.00
51759;BME280;66684;47.568;18.734;2024-02-21T09:53:24;100213.84;;;8.57;100.00
51759;BME280;66684;47.568;18.734;2024-02-21T09:55:50;100228.97;;;8.81;100.00
51759;BME280;66684;47.568;18.734;2024-02-21T09:58:16;100226.97;;;8.91;100.00
51759;BME280;66684;47.568;18.734;2024-02-21T10:00:42;100235.50;;;8.61;100.00
51759;BME280;66684;47.568;18.734;2024-02-21T10:03:08;100235.19;;;8.70;100.00
51759;BME280;66684;47.568;18.734;2024-02-21T10:05:35;100234.56;;;8.74;100.00
51759;BME280;66684;47.568;18.734;2024-02-21T10:08:02;100230.37;;;8.76;100.00
51759;BME280;66684;47.568;18.734;2024-02-21T10:10:28;100232.16;;;8.77;100.00
51759;BME280;66684;47.568;18.734;2024-02-21T10:12:56;100224.88;;;8.70;100.00
51759;BME280;66684;47.568;18.734;2024-02-21T10:15:24;100213.94;;;8.59;100.00
51759;BME280;66684;47.568;18.734;2024-02-21T10:17:58;100226.72;;;9.02;100.00
51759;BME280;66684;47.568;18.734;2024-02-21T10:20:25;100223.94;;;8.99;100.00
51759;BME280;66684;47.568;18.734;2024-02-21T10:23:03;100217.34;;;9.18;100.00
51759;BME280;66684;47.568;18.734;2024-02-21T10:25:36;100197.44;;;9.63;97.96
51759;BME280;66684;47.568;18.734;2024-02-21T10:28:12;100209.72;;;10.00;100.00
51759;BME280;66684;47.568;18.734;2024-02-21T10:30:38;100199.09;;;9.94;95.56
51759;BME280;66684;47.568;18.734;2024-02-21T10:33:05;100188.41;;;10.04;96.96
51759;BME280;66684;47.568;18.734;2024-02-21T10:35:32;100188.75;;;10.26;100.00
51759;BME280;66684;47.568;18.734;2024-02-21T10:37:59;100185.03;;;10.56;93.66
51759;BME280;66684;47.568;18.734;2024-02-21T10:40:27;100183.81;;;10.15;92.54
51759;BME280;66684;47.568;18.734;2024-02-21T10:42:58;100176.00;;;10.13;92.81
51759;BME280;66684;47.568;18.734;2024-02-21T10:45:45;100176.06;;;9.98;94.82
51759;BME280;66684;47.568;18.734;2024-02-21T10:48:22;100173.25;;;9.94;95.96
51759;BME280;66684;47.568;18.734;2024-02-21T10:50:53;100169.88;;;9.79;99.40
51759;BME280;66684;47.568;18.734;2024-02-21T10:58:44;100156.69;;;10.23;93.34
51759;BME280;66684;47.568;18.734;2024-02-21T11:01:12;100146.13;;;10.18;94.47
51759;BME280;66684;47.568;18.734;2024-02-21T11:03:45;100149.47;;;9.83;95.46
51759;BME280;66684;47.568;18.734;2024-02-21T11:06:13;100139.53;;;9.91;91.37
51759;BME280;66684;47.568;18.734;2024-02-21T11:08:40;100136.06;;;9.74;92.15
51759;BME280;66684;47.568;18.734;2024-02-21T11:11:06;100129.72;;;9.84;93.73
51759;BME280;66684;47.568;18.734;2024-02-21T11:13:35;100140.59;;;9.78;93.69
51759;BME280;66684;47.568;18.734;2024-02-21T11:16:12;100127.94;;;9.50;97.29
51759;BME280;66684;47.568;18.734;2024-02-21T11:18:38;100129.53;;;9.48;96.74
51759;BME280;66684;47.568;18.734;2024-02-21T11:21:04;100124.22;;;9.78;96.37
51759;BME280;66684;47.568;18.734;2024-02-21T11:23:32;100124.41;;;9.81;97.80
51759;BME280;66684;47.568;18.734;2024-02-21T11:26:09;100114.16;;;9.82;91.63
51759;BME280;66684;47.568;18.734;2024-02-21T11:28:35;100111.34;;;10.12;89.93
51759;BME280;66684;47.568;18.734;2024-02-21T11:31:08;100100.75;;;10.23;82.28
51759;BME280;66684;47.568;18.734;2024-02-21T11:33:35;100100.50;;;10.35;83.77
51759;BME280;66684;47.568;18.734;2024-02-21T11:36:01;100109.38;;;10.58;84.82
51759;BME280;66684;47.568;18.734;2024-02-21T11:38:30;100097.78;;;10.50;84.41
51759;BME280;66684;47.568;18.734;2024-02-21T11:40:56;100095.34;;;10.71;82.90
51759;BME280;66684;47.568;18.734;2024-02-21T11:43:21;100088.09;;;10.82;81.55
51759;BME280;66684;47.568;18.734;2024-02-21T11:45:47;100082.47;;;10.72;81.89
51759;BME280;66684;47.568;18.734;2024-02-21T11:48:14;100075.69;;;10.74;82.20
51759;BME280;66684;47.568;18.734;2024-02-21T11:50:40;100084.72;;;10.65;79.92
51759;BME280;66684;47.568;18.734;2024-02-21T11:53:06;100082.47;;;10.72;82.06
51759;BME280;66684;47.568;18.734;2024-02-21T11:55:31;100086.78;;;10.72;82.30
51759;BME280;66684;47.568;18.734;2024-02-21T11:57:57;100083.97;;;10.67;82.48
51759;BME280;66684;47.568;18.734;2024-02-21T12:00:25;100082.19;;;10.66;81.63
51759;BME280;66684;47.568;18.734;2024-02-21T12:02:51;100077.19;;;10.69;81.50
51759;BME280;66684;47.568;18.734;2024-02-21T12:05:19;100081.31;;;10.66;84.79
51759;BME280;66684;47.568;18.734;2024-02-21T12:07:45;100087.94;;;10.61;83.60
51759;BME280;66684;47.568;18.734;2024-02-21T12:10:12;100081.91;;;10.24;84.61
51759;BME280;66684;47.568;18.734;2024-02-21T12:12:38;100079.38;;;10.26;83.86
51759;BME280;66684;47.568;18.734;2024-02-21T12:15:06;100077.94;;;10.15;87.01
51759;BME280;66684;47.568;18.734;2024-02-21T12:17:35;100078.50;;;10.25;85.61
51759;BME280;66684;47.568;18.734;2024-02-21T12:20:04;100075.53;;;10.36;85.68
51759;BME280;66684;47.568;18.734;2024-02-21T12:22:31;100072.44;;;10.43;84.13
51759;BME280;66684;47.568;18.734;2024-02-21T12:24:58;100073.31;;;10.61;82.37
51759;BME280;66684;47.568;18.734;2024-02-21T12:27:24;100085.38;;;10.61;82.92
51759;BME280;66684;47.568;18.734;2024-02-21T12:29:52;100076.31;;;10.51;84.16
51759;BME280;66684;47.568;18.734;2024-02-21T12:32:18;100075.09;;;10.62;82.27
51759;BME280;66684;47.568;18.734;2024-02-21T12:34:43;100072.31;;;10.58;81.01
51759;BME280;66684;47.568;18.734;2024-02-21T12:37:10;100074.66;;;10.53;81.50
51759;BME280;66684;47.568;18.734;2024-02-21T12:39:38;100072.25;;;10.56;77.36
51759;BME280;66684;47.568;18.734;2024-02-21T12:42:04;100067.91;;;10.37;78.92
51759;BME280;66684;47.568;18.734;2024-02-21T12:44:30;100057.03;;;10.10;79.23
51759;BME280;66684;47.568;18.734;2024-02-21T12:46:57;100059.19;;;10.01;80.76
51759;BME280;66684;47.568;18.734;2024-02-21T12:49:23;100058.69;;;9.92;81.17
51759;BME280;66684;47.568;18.734;2024-02-21T12:51:50;100054.16;;;10.04;81.60